sensor_id;sensor_type;location;lat;lon;timestamp;temperature;humidity
41694;DHT22;27377;50.666;9.150;2023-04-03T00:01:55;4.80;99.90
41694;DHT22;27377;50.666;9.150;2023-04-03T00:04:20;4.80;99.90
41694;DHT22;27377;50.666;9.150;2023-04-03T00:06:46;4.80;99.90
41694;DHT22;27377;50.666;9.150;2023-04-03T00:09:12;4.80;99.90
41694;DHT22;27377;50.666;9.150;2023-04-03T00:11:37;4.80;99.90
41694;DHT22;27377;50.666;9.150;2023-04-03T00:14:03;4.80;99.90
41694;DHT22;27377;50.666;9.150;2023-04-03T00:16:28;4.80;99.90
41694;DHT22;27377;50.666;9.150;2023-04-03T00:18:54;4.80;99.90
41694;DHT22;27377;50.666;9.150;2023-04-03T00:21:20;4.80;99.90
41694;DHT22;27377;50.666;9.150;2023-04-03T00:23:45;4.80;99.90
41694;DHT22;27377;50.666;9.150;2023-04-03T00:26:11;4.80;99.90
41694;DHT22;27377;50.666;9.150;2023-04-03T00:28:36;4.90;99.90
41694;DHT22;27377;50.666;9.150;2023-04-03T00:31:02;4.80;99.90
41694;DHT22;27377;50.666;9.150;2023-04-03T00:33:28;4.90;99.90
41694;DHT22;27377;50.666;9.150;2023-04-03T00:35:53;4.90;99.90
41694;DHT22;27377;50.666;9.150;2023-04-03T00:38:19;4.90;99.90
41694;DHT22;27377;50.666;9.150;2023-04-03T00:40:48;4.80;99.90
41694;DHT22;27377;50.666;9.150;2023-04-03T00:43:20;4.80;99.90
41694;DHT22;27377;50.666;9.150;2023-04-03T00:45:54;4.80;99.90
41694;DHT22;27377;50.666;9.150;2023-04-03T00:48:32;4.80;99.90
41694;DHT22;27377;50.666;9.150;2023-04-03T00:50:59;4.90;99.90
41694;DHT22;27377;50.666;9.150;2023-04-03T00:53:30;4.80;99.90
41694;DHT22;27377;50.666;9.150;2023-04-03T00:55:56;4.90;99.90
41694;DHT22;27377;50.666;9.150;2023-04-03T01:01:27;4.80;99.90
41694;DHT22;27377;50.666;9.150;2023-04-03T01:03:53;4.80;99.90
41694;DHT22;27377;50.666;9.150;2023-04-03T01:06:24;4.80;99.90
41694;DHT22;27377;50.666;9.150;2023-04-03T01:08:51;4.80;99.90
41694;DHT22;27377;50.666;9.150;2023-04-03T01:11:17;4.70;99.90
41694;DHT22;27377;50.666;9.150;2023-04-03T01:13:43;4.70;99.90
41694;DHT22;27377;50.666;9.150;2023-04-03T01:16:09;4.70;99.90
41694;DHT22;27377;50.666;9.150;2023-04-03T01:18:37;4.60;99.90
41694;DHT22;27377;50.666;9.150;2023-04-03T01:24:17;4.50;99.90
41694;DHT22;27377;50.666;9.150;2023-04-03T01:26:46;4.50;99.90
41694;DHT22;27377;50.666;9.150;2023-04-03T01:29:13;4.50;99.90
41694;DHT22;27377;50.666;9.150;2023-04-03T01:31:46;4.50;99.90
41694;DHT22;27377;50.666;9.150;2023-04-03T01:34:12;4.50;99.90
41694;DHT22;27377;50.666;9.150;2023-04-03T01:36:37;4.50;99.90
41694;DHT22;27377;50.666;9.150;2023-04-03T01:39:03;4.50;99.90
41694;DHT22;27377;50.666;9.150;2023-04-03T01:41:29;4.40;99.90
41694;DHT22;27377;50.666;9.150;2023-04-03T01:43:55;4.40;99.90
41694;DHT22;27377;50.666;9.150;2023-04-03T01:46:21;4.50;99.90
41694;DHT22;27377;50.666;9.150;2023-04-03T01:48:47;4.40;99.90
41694;DHT22;27377;50.666;9.150;2023-04-03T01:51:13;4.40;99.90
41694;DHT22;27377;50.666;9.150;2023-04-03T01:53:38;4.40;99.90
41694;DHT22;27377;50.666;9.150;2023-04-03T01:56:04;4.30;99.90
41694;DHT22;27377;50.666;9.150;2023-04-03T01:58:30;4.30;99.90
41694;DHT22;27377;50.666;9.150;2023-04-03T02:00:55;4.30;99.90
41694;DHT22;27377;50.666;9.150;2023-04-03T02:03:21;4.30;99.90
41694;DHT22;27377;50.666;9.150;2023-04-03T02:05:47;4.20;99.90
41694;DHT22;27377;50.666;9.150;2023-04-03T02:08:13;4.20;99.90
41694;DHT22;27377;50.666;9.150;2023-04-03T02:10:39;4.20;99.90
41694;DHT22;27377;50.666;9.150;2023-04-03T02:13:05;4.20;99.90
41694;DHT22;27377;50.666;9.150;2023-04-03T02:15:31;4.10;99.90
41694;DHT22;27377;50.666;9.150;2023-04-03T02:17:56;4.00;99.90
41694;DHT22;27377;50.666;9.150;2023-04-03T02:20:22;3.90;99.90
41694;DHT22;27377;50.666;9.150;2023-04-03T02:22:47;4.00;99.90
41694;DHT22;27377;50.666;9.150;2023-04-03T02:25:13;3.90;99.90
41694;DHT22;27377;50.666;9.150;2023-04-03T02:27:41;3.80;99.90
41694;DHT22;27377;50.666;9.150;2023-04-03T02:30:07;3.80;99.90
41694;DHT22;27377;50.666;9.150;2023-04-03T02:32:34;3.70;99.90
41694;DHT22;27377;50.666;9.150;2023-04-03T02:35:00;3.70;99.90
41694;DHT22;27377;50.666;9.150;2023-04-03T02:37:26;3.70;99.90
41694;DHT22;27377;50.666;9.150;2023-04-03T02:39:51;3.70;99.90
41694;DHT22;27377;50.666;9.150;2023-04-03T02:42:17;3.60;99.90
41694;DHT22;27377;50.666;9.150;2023-04-03T02:44:42;3.60;99.90
41694;DHT22;27377;50.666;9.150;2023-04-03T02:47:08;3.50;99.90
41694;DHT22;27377;50.666;9.150;2023-04-03T02:49:33;3.50;99.90
41694;DHT22;27377;50.666;9.150;2023-04-03T02:51:59;3.50;99.90
41694;DHT22;27377;50.666;9.150;2023-04-03T02:54:24;3.40;99.90
41694;DHT22;27377;50.666;9.150;2023-04-03T02:56:53;3.30;99.90
41694;DHT22;27377;50.666;9.150;2023-04-03T02:59:19;3.20;99.90
41694;DHT22;27377;50.666;9.150;2023-04-03T03:01:45;3.20;99.90
41694;DHT22;27377;50.666;9.150;2023-04-03T03:04:11;3.10;99.90
41694;DHT22;27377;50.666;9.150;2023-04-03T03:06:36;3.10;99.90
41694;DHT22;27377;50.666;9.150;2023-04-03T03:09:02;3.00;99.90
41694;DHT22;27377;50.666;9.150;2023-04-03T03:11:29;2.90;99.90
41694;DHT22;27377;50.666;9.150;2023-04-03T03:13:54;2.90;99.90
41694;DHT22;27377;50.666;9.150;2023-04-03T03:16:20;2.90;99.90
41694;DHT22;27377;50.666;9.150;2023-04-03T03:18:46;2.80;99.90
41694;DHT22;27377;50.666;9.150;2023-04-03T03:21:11;2.90;99.90
41694;DHT22;27377;50.666;9.150;2023-04-03T03:23:37;2.90;99.90
41694;DHT22;27377;50.666;9.150;2023-04-03T03:26:05;2.90;99.90
41694;DHT22;27377;50.666;9.150;2023-04-03T03:28:31;2.80;99.90
41694;DHT22;27377;50.666;9.150;2023-04-03T03:30:58;2.80;99.90
41694;DHT22;27377;50.666;9.150;2023-04-03T03:33:24;2.80;99.90
41694;DHT22;27377;50.666;9.150;2023-04-03T03:35:51;2.80;99.90
41694;DHT22;27377;50.666;9.150;2023-04-03T03:38:16;2.80;99.90
41694;DHT22;27377;50.666;9.150;2023-04-03T03:40:42;2.80;99.90
41694;DHT22;27377;50.666;9.150;2023-04-03T03:43:07;2.70;99.90
41694;DHT22;27377;50.666;9.150;2023-04-03T03:45:33;2.70;99.90
41694;DHT22;27377;50.666;9.150;2023-04-03T03:47:59;2.70;99.90
41694;DHT22;27377;50.666;9.150;2023-04-03T03:50:24;2.70;99.90
41694;DHT22;27377;50.666;9.150;2023-04-03T03:52:50;2.70;99.90
41694;DHT22;27377;50.666;9.150;2023-04-03T03:55:15;2.70;99.90
41694;DHT22;27377;50.666;9.150;2023-04-03T03:57:41;2.70;99.90
41694;DHT22;27377;50.666;9.150;2023-04-03T04:00:07;2.70;99.90
41694;DHT22;27377;50.666;9.150;2023-04-03T04:02:34;2.70;99.90
41694;DHT22;27377;50.666;9.150;2023-04-03T04:04:59;2.70;99.90
41694;DHT22;27377;50.666;9.150;2023-04-03T04:07:25;2.60;99.90
41694;DHT22;27377;50.666;9.150;2023-04-03T04:09:53;2.60;99.90
41694;DHT22;27377;50.666;9.150;2023-04-03T04:12:19;2.60;99.90
41694;DHT22;27377;50.666;9.150;2023-04-03T04:14:45;2.50;99.90
41694;DHT22;27377;50.666;9.150;2023-04-03T04:17:15;2.50;99.90
41694;DHT22;27377;50.666;9.150;2023-04-03T04:19:41;2.40;99.90
41694;DHT22;27377;50.666;9.150;2023-04-03T04:22:06;2.40;99.90
41694;DHT22;27377;50.666;9.150;2023-04-03T04:24:32;2.40;99.90
41694;DHT22;27377;50.666;9.150;2023-04-03T04:26:57;2.30;99.90
41694;DHT22;27377;50.666;9.150;2023-04-03T04:29:23;2.30;99.90
41694;DHT22;27377;50.666;9.150;2023-04-03T04:31:48;2.40;99.90
41694;DHT22;27377;50.666;9.150;2023-04-03T04:34:14;2.40;99.90
41694;DHT22;27377;50.666;9.150;2023-04-03T04:36:40;2.30;99.90
41694;DHT22;27377;50.666;9.150;2023-04-03T04:39:06;2.30;99.90
41694;DHT22;27377;50.666;9.150;2023-04-03T04:41:31;2.30;99.90
41694;DHT22;27377;50.666;9.150;2023-04-03T04:43:57;2.30;99.90
41694;DHT22;27377;50.666;9.150;2023-04-03T04:46:23;2.30;99.90
41694;DHT22;27377;50.666;9.150;2023-04-03T04:48:48;2.30;99.90
41694;DHT22;27377;50.666;9.150;2023-04-03T04:51:15;2.30;99.90
41694;DHT22;27377;50.666;9.150;2023-04-03T04:53:41;2.30;99.90
41694;DHT22;27377;50.666;9.150;2023-04-03T04:56:08;2.30;99.90
41694;DHT22;27377;50.666;9.150;2023-04-03T04:58:34;2.30;99.90
41694;DHT22;27377;50.666;9.150;2023-04-03T05:01:00;2.30;99.90
41694;DHT22;27377;50.666;9.150;2023-04-03T05:03:26;2.30;99.90
41694;DHT22;27377;50.666;9.150;2023-04-03T05:05:52;2.30;99.90
41694;DHT22;27377;50.666;9.150;2023-04-03T05:08:17;2.30;99.90
41694;DHT22;27377;50.666;9.150;2023-04-03T05:10:45;2.30;99.90
41694;DHT22;27377;50.666;9.150;2023-04-03T05:13:11;2.40;99.90
41694;DHT22;27377;50.666;9.150;2023-04-03T05:15:36;2.40;99.90
41694;DHT22;27377;50.666;9.150;2023-04-03T05:18:02;2.40;99.90
41694;DHT22;27377;50.666;9.150;2023-04-03T05:20:27;2.40;99.90
41694;DHT22;27377;50.666;9.150;2023-04-03T05:22:53;2.40;99.90
41694;DHT22;27377;50.666;9.150;2023-04-03T05:25:18;2.40;99.90
41694;DHT22;27377;50.666;9.150;2023-04-03T05:27:44;2.50;99.90
41694;DHT22;27377;50.666;9.150;2023-04-03T05:30:10;2.50;99.90
41694;DHT22;27377;50.666;9.150;2023-04-03T05:32:36;2.50;99.90
41694;DHT22;27377;50.666;9.150;2023-04-03T05:35:02;2.50;99.90
41694;DHT22;27377;50.666;9.150;2023-04-03T05:37:27;2.50;99.90
41694;DHT22;27377;50.666;9.150;2023-04-03T05:39:53;2.60;99.90
41694;DHT22;27377;50.666;9.150;2023-04-03T05:42:18;2.70;99.90
41694;DHT22;27377;50.666;9.150;2023-04-03T05:44:44;2.70;99.90
41694;DHT22;27377;50.666;9.150;2023-04-03T05:47:12;2.60;99.90
41694;DHT22;27377;50.666;9.150;2023-04-03T05:49:37;2.70;99.90
41694;DHT22;27377;50.666;9.150;2023-04-03T05:52:09;2.70;99.90
41694;DHT22;27377;50.666;9.150;2023-04-03T05:54:38;2.70;99.90
41694;DHT22;27377;50.666;9.150;2023-04-03T05:57:03;2.60;99.90
41694;DHT22;27377;50.666;9.150;2023-04-03T05:59:29;2.70;99.90
41694;DHT22;27377;50.666;9.150;2023-04-03T06:01:54;2.70;99.90
41694;DHT22;27377;50.666;9.150;2023-04-03T06:04:20;2.80;99.90
41694;DHT22;27377;50.666;9.150;2023-04-03T06:06:54;2.70;99.90
41694;DHT22;27377;50.666;9.150;2023-04-03T06:09:23;2.80;99.90
41694;DHT22;27377;50.666;9.150;2023-04-03T06:11:49;2.80;99.90
41694;DHT22;27377;50.666;9.150;2023-04-03T06:14:15;2.80;99.90
41694;DHT22;27377;50.666;9.150;2023-04-03T06:16:41;2.80;99.90
41694;DHT22;27377;50.666;9.150;2023-04-03T06:19:10;2.80;99.90
41694;DHT22;27377;50.666;9.150;2023-04-03T06:21:38;2.80;99.90
41694;DHT22;27377;50.666;9.150;2023-04-03T06:24:04;2.80;99.90
41694;DHT22;27377;50.666;9.150;2023-04-03T06:26:31;2.80;99.90
41694;DHT22;27377;50.666;9.150;2023-04-03T06:28:57;2.80;99.90
41694;DHT22;27377;50.666;9.150;2023-04-03T06:31:23;2.80;99.90
41694;DHT22;27377;50.666;9.150;2023-04-03T06:33:48;2.90;99.90
41694;DHT22;27377;50.666;9.150;2023-04-03T06:36:14;2.90;99.90
41694;DHT22;27377;50.666;9.150;2023-04-03T06:38:45;2.90;99.90
41694;DHT22;27377;50.666;9.150;2023-04-03T06:41:10;2.90;99.90
41694;DHT22;27377;50.666;9.150;2023-04-03T06:43:36;2.90;99.90
41694;DHT22;27377;50.666;9.150;2023-04-03T06:46:02;3.00;99.90
41694;DHT22;27377;50.666;9.150;2023-04-03T06:48:27;3.00;99.90
41694;DHT22;27377;50.666;9.150;2023-04-03T06:50:53;2.90;99.90
41694;DHT22;27377;50.666;9.150;2023-04-03T06:53:19;2.90;99.90
41694;DHT22;27377;50.666;9.150;2023-04-03T06:55:44;3.00;99.90
41694;DHT22;27377;50.666;9.150;2023-04-03T06:58:10;3.00;99.90
41694;DHT22;27377;50.666;9.150;2023-04-03T07:00:36;3.00;99.90
41694;DHT22;27377;50.666;9.150;2023-04-03T07:03:01;3.00;99.90
41694;DHT22;27377;50.666;9.150;2023-04-03T07:05:27;3.00;99.90
41694;DHT22;27377;50.666;9.150;2023-04-03T07:07:53;3.00;99.90
41694;DHT22;27377;50.666;9.150;2023-04-03T07:10:19;3.10;99.90
41694;DHT22;27377;50.666;9.150;2023-04-03T07:12:45;3.10;99.90
41694;DHT22;27377;50.666;9.150;2023-04-03T07:15:11;3.10;99.90
41694;DHT22;27377;50.666;9.150;2023-04-03T07:17:38;3.20;99.90
41694;DHT22;27377;50.666;9.150;2023-04-03T07:20:04;3.10;99.90
41694;DHT22;27377;50.666;9.150;2023-04-03T07:22:30;3.10;99.90
41694;DHT22;27377;50.666;9.150;2023-04-03T07:24:56;3.10;99.90
41694;DHT22;27377;50.666;9.150;2023-04-03T07:27:21;3.20;99.90
41694;DHT22;27377;50.666;9.150;2023-04-03T07:29:47;3.20;99.90
41694;DHT22;27377;50.666;9.150;2023-04-03T07:32:14;3.10;99.90
41694;DHT22;27377;50.666;9.150;2023-04-03T07:34:40;3.10;99.90
41694;DHT22;27377;50.666;9.150;2023-04-03T07:37:06;3.10;99.90
41694;DHT22;27377;50.666;9.150;2023-04-03T07:39:31;3.20;99.90
41694;DHT22;27377;50.666;9.150;2023-04-03T07:41:57;3.10;99.90
41694;DHT22;27377;50.666;9.150;2023-04-03T07:44:23;3.20;99.90
41694;DHT22;27377;50.666;9.150;2023-04-03T07:46:48;3.10;99.90
41694;DHT22;27377;50.666;9.150;2023-04-03T07:49:16;3.20;99.90
41694;DHT22;27377;50.666;9.150;2023-04-03T07:51:43;3.20;99.90
41694;DHT22;27377;50.666;9.150;2023-04-03T07:54:09;3.20;99.90
41694;DHT22;27377;50.666;9.150;2023-04-03T07:56:34;3.20;99.90
41694;DHT22;27377;50.666;9.150;2023-04-03T07:59:00;3.20;99.90
41694;DHT22;27377;50.666;9.150;2023-04-03T08:01:25;3.20;99.90
41694;DHT22;27377;50.666;9.150;2023-04-03T08:03:51;3.40;99.90
41694;DHT22;27377;50.666;9.150;2023-04-03T08:06:17;3.40;99.90
41694;DHT22;27377;50.666;9.150;2023-04-03T08:08:43;3.40;99.90
41694;DHT22;27377;50.666;9.150;2023-04-03T08:11:10;3.40;99.90
41694;DHT22;27377;50.666;9.150;2023-04-03T08:13:35;3.40;99.90
41694;DHT22;27377;50.666;9.150;2023-04-03T08:16:14;3.40;99.90
41694;DHT22;27377;50.666;9.150;2023-04-03T08:18:41;3.40;99.90
41694;DHT22;27377;50.666;9.150;2023-04-03T08:21:09;3.40;99.90
41694;DHT22;27377;50.666;9.150;2023-04-03T08:23:35;3.40;99.90
41694;DHT22;27377;50.666;9.150;2023-04-03T08:26:09;3.30;99.90
41694;DHT22;27377;50.666;9.150;2023-04-03T08:28:34;3.30;99.90
41694;DHT22;27377;50.666;9.150;2023-04-03T08:31:05;3.30;99.90
41694;DHT22;27377;50.666;9.150;2023-04-03T08:33:32;3.40;99.90
41694;DHT22;27377;50.666;9.150;2023-04-03T08:35:57;3.50;99.90
41694;DHT22;27377;50.666;9.150;2023-04-03T08:38:23;3.60;99.90
41694;DHT22;27377;50.666;9.150;2023-04-03T08:41:00;3.60;99.90
41694;DHT22;27377;50.666;9.150;2023-04-03T08:43:52;3.60;99.90
41694;DHT22;27377;50.666;9.150;2023-04-03T08:46:23;3.70;99.90
41694;DHT22;27377;50.666;9.150;2023-04-03T08:48:51;3.80;99.90
41694;DHT22;27377;50.666;9.150;2023-04-03T08:51:20;3.90;99.90
41694;DHT22;27377;50.666;9.150;2023-04-03T08:54:06;3.90;99.90
41694;DHT22;27377;50.666;9.150;2023-04-03T08:56:38;3.90;99.90
41694;DHT22;27377;50.666;9.150;2023-04-03T08:59:12;4.00;99.90
41694;DHT22;27377;50.666;9.150;2023-04-03T09:01:40;3.90;99.90
41694;DHT22;27377;50.666;9.150;2023-04-03T09:04:12;3.90;99.90
41694;DHT22;27377;50.666;9.150;2023-04-03T09:06:39;3.90;99.90
41694;DHT22;27377;50.666;9.150;2023-04-03T09:09:30;3.90;99.90
41694;DHT22;27377;50.666;9.150;2023-04-03T09:12:06;3.90;99.90
41694;DHT22;27377;50.666;9.150;2023-04-03T09:19:54;4.00;99.90
41694;DHT22;27377;50.666;9.150;2023-04-03T09:22:26;4.10;99.90
41694;DHT22;27377;50.666;9.150;2023-04-03T09:25:10;4.10;99.90
41694;DHT22;27377;50.666;9.150;2023-04-03T09:27:38;4.10;99.90
41694;DHT22;27377;50.666;9.150;2023-04-03T09:30:04;4.10;99.90
41694;DHT22;27377;50.666;9.150;2023-04-03T09:32:36;4.10;99.90
41694;DHT22;27377;50.666;9.150;2023-04-03T09:35:06;4.10;99.90
41694;DHT22;27377;50.666;9.150;2023-04-03T09:37:46;4.20;99.90
41694;DHT22;27377;50.666;9.150;2023-04-03T09:42:51;4.20;99.90
41694;DHT22;27377;50.666;9.150;2023-04-03T09:45:28;4.20;99.90
41694;DHT22;27377;50.666;9.150;2023-04-03T09:53:33;4.30;99.90
41694;DHT22;27377;50.666;9.150;2023-04-03T09:56:01;4.30;99.90
41694;DHT22;27377;50.666;9.150;2023-04-03T10:00:57;4.40;99.90
41694;DHT22;27377;50.666;9.150;2023-04-03T10:03:35;4.40;99.90
41694;DHT22;27377;50.666;9.150;2023-04-03T10:06:03;4.40;99.90
41694;DHT22;27377;50.666;9.150;2023-04-03T10:08:34;4.50;99.90
41694;DHT22;27377;50.666;9.150;2023-04-03T10:11:15;4.50;99.90
41694;DHT22;27377;50.666;9.150;2023-04-03T10:14:01;4.50;99.30
41694;DHT22;27377;50.666;9.150;2023-04-03T10:16:53;4.50;99.60
41694;DHT22;27377;50.666;9.150;2023-04-03T10:19:41;4.50;99.80
41694;DHT22;27377;50.666;9.150;2023-04-03T10:25:04;4.50;99.90
41694;DHT22;27377;50.666;9.150;2023-04-03T10:27:54;4.60;99.90
41694;DHT22;27377;50.666;9.150;2023-04-03T10:33:16;4.70;99.90
41694;DHT22;27377;50.666;9.150;2023-04-03T10:36:07;4.70;99.90
41694;DHT22;27377;50.666;9.150;2023-04-03T10:38:50;4.70;99.90
41694;DHT22;27377;50.666;9.150;2023-04-03T10:44:36;4.80;99.90
41694;DHT22;27377;50.666;9.150;2023-04-03T10:47:14;4.80;99.90
41694;DHT22;27377;50.666;9.150;2023-04-03T10:52:42;4.80;99.90
41694;DHT22;27377;50.666;9.150;2023-04-03T10:57:47;4.80;99.90
41694;DHT22;27377;50.666;9.150;2023-04-03T11:00:25;4.90;99.90
41694;DHT22;27377;50.666;9.150;2023-04-03T11:02:57;5.00;99.90
41694;DHT22;27377;50.666;9.150;2023-04-03T11:05:42;5.00;99.90
41694;DHT22;27377;50.666;9.150;2023-04-03T11:08:42;5.00;99.90
41694;DHT22;27377;50.666;9.150;2023-04-03T11:11:16;5.10;99.90
41694;DHT22;27377;50.666;9.150;2023-04-03T11:13:49;5.00;99.00
41694;DHT22;27377;50.666;9.150;2023-04-03T11:16:24;5.10;99.70
41694;DHT22;27377;50.666;9.150;2023-04-03T11:18:54;5.10;99.80
41694;DHT22;27377;50.666;9.150;2023-04-03T11:21:41;5.10;99.90
41694;DHT22;27377;50.666;9.150;2023-04-03T11:24:17;5.10;99.90
41694;DHT22;27377;50.666;9.150;2023-04-03T11:26:46;5.20;99.90
41694;DHT22;27377;50.666;9.150;2023-04-03T11:29:18;5.20;99.90
41694;DHT22;27377;50.666;9.150;2023-04-03T11:32:04;5.30;99.90
41694;DHT22;27377;50.666;9.150;2023-04-03T11:34:39;5.30;99.90
41694;DHT22;27377;50.666;9.150;2023-04-03T11:37:24;5.30;99.90
41694;DHT22;27377;50.666;9.150;2023-04-03T11:39:57;5.30;99.20
41694;DHT22;27377;50.666;9.150;2023-04-03T11:42:46;5.30;98.90
41694;DHT22;27377;50.666;9.150;2023-04-03T11:48:06;5.30;99.90
41694;DHT22;27377;50.666;9.150;2023-04-03T11:50:50;5.40;99.90
41694;DHT22;27377;50.666;9.150;2023-04-03T11:58:21;5.40;99.90
41694;DHT22;27377;50.666;9.150;2023-04-03T12:00:59;5.40;99.90
41694;DHT22;27377;50.666;9.150;2023-04-03T12:16:21;5.40;99.90
41694;DHT22;27377;50.666;9.150;2023-04-03T12:27:05;5.40;99.90
41694;DHT22;27377;50.666;9.150;2023-04-03T12:29:41;5.40;99.90
41694;DHT22;27377;50.666;9.150;2023-04-03T12:35:09;5.50;99.90
41694;DHT22;27377;50.666;9.150;2023-04-03T12:40:24;5.50;99.80
41694;DHT22;27377;50.666;9.150;2023-04-03T12:43:05;5.60;99.90
41694;DHT22;27377;50.666;9.150;2023-04-03T12:45:56;5.60;99.90
41694;DHT22;27377;50.666;9.150;2023-04-03T12:48:27;5.70;99.90
41694;DHT22;27377;50.666;9.150;2023-04-03T12:50:54;5.70;99.90
41694;DHT22;27377;50.666;9.150;2023-04-03T12:53:26;5.80;99.90
41694;DHT22;27377;50.666;9.150;2023-04-03T12:55:57;5.80;99.90
41694;DHT22;27377;50.666;9.150;2023-04-03T12:58:24;5.80;99.90
41694;DHT22;27377;50.666;9.150;2023-04-03T13:01:14;5.80;99.90
41694;DHT22;27377;50.666;9.150;2023-04-03T13:03:45;5.70;99.90
41694;DHT22;27377;50.666;9.150;2023-04-03T13:06:24;5.70;99.90
41694;DHT22;27377;50.666;9.150;2023-04-03T13:09:00;5.70;99.90
41694;DHT22;27377;50.666;9.150;2023-04-03T13:11:40;5.60;99.90
41694;DHT22;27377;50.666;9.150;2023-04-03T13:14:24;5.60;99.90
41694;DHT22;27377;50.666;9.150;2023-04-03T13:19:23;5.70;99.90
41694;DHT22;27377;50.666;9.150;2023-04-03T13:21:52;5.80;99.90
41694;DHT22;27377;50.666;9.150;2023-04-03T13:24:21;5.80;99.90
41694;DHT22;27377;50.666;9.150;2023-04-03T13:26:47;5.80;99.90
41694;DHT22;27377;50.666;9.150;2023-04-03T13:29:32;5.80;99.90
41694;DHT22;27377;50.666;9.150;2023-04-03T13:31:59;5.80;99.90
41694;DHT22;27377;50.666;9.150;2023-04-03T13:34:28;5.90;99.90
41694;DHT22;27377;50.666;9.150;2023-04-03T13:36:55;5.90;99.90
41694;DHT22;27377;50.666;9.150;2023-04-03T13:39:28;5.90;99.90
41694;DHT22;27377;50.666;9.150;2023-04-03T13:41:57;5.90;99.90
41694;DHT22;27377;50.666;9.150;2023-04-03T13:50:04;6.10;99.90
41694;DHT22;27377;50.666;9.150;2023-04-03T13:52:45;6.00;99.90
41694;DHT22;27377;50.666;9.150;2023-04-03T13:55:29;6.00;99.90
41694;DHT22;27377;50.666;9.150;2023-04-03T13:58:29;6.00;99.90
41694;DHT22;27377;50.666;9.150;2023-04-03T14:05:46;6.00;99.90
41694;DHT22;27377;50.666;9.150;2023-04-03T14:08:12;5.90;99.90
41694;DHT22;27377;50.666;9.150;2023-04-03T14:10:38;6.00;99.90
41694;DHT22;27377;50.666;9.150;2023-04-03T14:13:04;5.90;99.10
41694;DHT22;27377;50.666;9.150;2023-04-03T14:15:31;6.00;99.10
41694;DHT22;27377;50.666;9.150;2023-04-03T14:17:57;6.00;99.40
41694;DHT22;27377;50.666;9.150;2023-04-03T14:20:26;6.00;99.80
41694;DHT22;27377;50.666;9.150;2023-04-03T14:22:52;5.90;99.90
41694;DHT22;27377;50.666;9.150;2023-04-03T14:25:20;5.90;99.90
41694;DHT22;27377;50.666;9.150;2023-04-03T14:27:49;6.00;99.90
41694;DHT22;27377;50.666;9.150;2023-04-03T14:30:23;6.00;99.80
41694;DHT22;27377;50.666;9.150;2023-04-03T14:32:49;6.00;99.90
41694;DHT22;27377;50.666;9.150;2023-04-03T14:35:15;6.10;99.90
41694;DHT22;27377;50.666;9.150;2023-04-03T14:37:41;6.10;99.70
41694;DHT22;27377;50.666;9.150;2023-04-03T14:40:08;6.10;99.80
41694;DHT22;27377;50.666;9.150;2023-04-03T14:42:36;6.20;99.20
41694;DHT22;27377;50.666;9.150;2023-04-03T14:45:05;6.20;98.40
41694;DHT22;27377;50.666;9.150;2023-04-03T14:47:31;6.20;99.20
41694;DHT22;27377;50.666;9.150;2023-04-03T14:50:01;6.20;99.60
41694;DHT22;27377;50.666;9.150;2023-04-03T14:52:33;6.20;99.80
41694;DHT22;27377;50.666;9.150;2023-04-03T14:54:59;6.20;99.50
41694;DHT22;27377;50.666;9.150;2023-04-03T14:57:27;6.20;99.90
41694;DHT22;27377;50.666;9.150;2023-04-03T14:59:53;6.20;99.60
41694;DHT22;27377;50.666;9.150;2023-04-03T15:02:31;6.20;98.90
41694;DHT22;27377;50.666;9.150;2023-04-03T15:04:57;6.20;99.20
41694;DHT22;27377;50.666;9.150;2023-04-03T15:07:26;6.10;99.40
41694;DHT22;27377;50.666;9.150;2023-04-03T15:09:52;6.10;99.40
41694;DHT22;27377;50.666;9.150;2023-04-03T15:12:18;6.10;99.70
41694;DHT22;27377;50.666;9.150;2023-04-03T15:14:43;6.20;99.70
41694;DHT22;27377;50.666;9.150;2023-04-03T15:17:17;6.20;99.90
41694;DHT22;27377;50.666;9.150;2023-04-03T15:19:45;6.20;99.70
41694;DHT22;27377;50.666;9.150;2023-04-03T15:22:16;6.20;99.90
41694;DHT22;27377;50.666;9.150;2023-04-03T15:24:42;6.20;99.30
41694;DHT22;27377;50.666;9.150;2023-04-03T15:27:08;6.10;99.90
41694;DHT22;27377;50.666;9.150;2023-04-03T15:29:34;6.10;99.30
41694;DHT22;27377;50.666;9.150;2023-04-03T15:32:00;6.10;99.20
41694;DHT22;27377;50.666;9.150;2023-04-03T15:34:25;6.10;99.30
41694;DHT22;27377;50.666;9.150;2023-04-03T15:36:51;6.10;99.70
41694;DHT22;27377;50.666;9.150;2023-04-03T15:39:17;6.20;99.60
41694;DHT22;27377;50.666;9.150;2023-04-03T15:41:44;6.30;99.70
41694;DHT22;27377;50.666;9.150;2023-04-03T15:44:10;6.30;98.90
41694;DHT22;27377;50.666;9.150;2023-04-03T15:46:37;6.40;99.40
41694;DHT22;27377;50.666;9.150;2023-04-03T15:49:04;6.30;98.10
41694;DHT22;27377;50.666;9.150;2023-04-03T15:51:29;6.30;98.40
41694;DHT22;27377;50.666;9.150;2023-04-03T15:53:55;6.20;98.40
41694;DHT22;27377;50.666;9.150;2023-04-03T15:56:21;6.30;98.30
41694;DHT22;27377;50.666;9.150;2023-04-03T15:58:46;6.20;98.60
41694;DHT22;27377;50.666;9.150;2023-04-03T16:01:12;6.30;99.00
41694;DHT22;27377;50.666;9.150;2023-04-03T16:03:40;6.30;99.30
41694;DHT22;27377;50.666;9.150;2023-04-03T16:06:14;6.30;98.60
41694;DHT22;27377;50.666;9.150;2023-04-03T16:08:40;6.30;97.10
41694;DHT22;27377;50.666;9.150;2023-04-03T16:11:06;6.30;97.10
41694;DHT22;27377;50.666;9.150;2023-04-03T16:13:31;6.30;97.30
41694;DHT22;27377;50.666;9.150;2023-04-03T16:15:59;6.20;98.00
41694;DHT22;27377;50.666;9.150;2023-04-03T16:18:25;6.20;98.60
41694;DHT22;27377;50.666;9.150;2023-04-03T16:20:51;6.30;98.70
41694;DHT22;27377;50.666;9.150;2023-04-03T16:23:17;6.20;98.00
41694;DHT22;27377;50.666;9.150;2023-04-03T16:25:43;6.30;97.80
41694;DHT22;27377;50.666;9.150;2023-04-03T16:28:12;6.30;97.50
41694;DHT22;27377;50.666;9.150;2023-04-03T16:30:41;6.40;97.80
41694;DHT22;27377;50.666;9.150;2023-04-03T16:33:09;6.30;96.60
41694;DHT22;27377;50.666;9.150;2023-04-03T16:35:35;6.20;97.20
41694;DHT22;27377;50.666;9.150;2023-04-03T16:38:01;6.20;97.80
41694;DHT22;27377;50.666;9.150;2023-04-03T16:40:27;6.20;97.80
41694;DHT22;27377;50.666;9.150;2023-04-03T16:42:52;6.10;97.80
41694;DHT22;27377;50.666;9.150;2023-04-03T16:45:18;6.10;97.90
41694;DHT22;27377;50.666;9.150;2023-04-03T16:47:43;6.10;98.00
41694;DHT22;27377;50.666;9.150;2023-04-03T16:50:09;6.20;98.20
41694;DHT22;27377;50.666;9.150;2023-04-03T16:52:35;6.20;98.20
41694;DHT22;27377;50.666;9.150;2023-04-03T16:55:01;6.20;97.90
41694;DHT22;27377;50.666;9.150;2023-04-03T16:57:26;6.10;97.50
41694;DHT22;27377;50.666;9.150;2023-04-03T16:59:52;6.10;97.70
41694;DHT22;27377;50.666;9.150;2023-04-03T17:02:19;6.00;97.80
41694;DHT22;27377;50.666;9.150;2023-04-03T17:04:45;6.00;97.00
41694;DHT22;27377;50.666;9.150;2023-04-03T17:07:10;6.00;97.30
41694;DHT22;27377;50.666;9.150;2023-04-03T17:09:36;6.00;96.80
41694;DHT22;27377;50.666;9.150;2023-04-03T17:12:02;6.00;97.00
41694;DHT22;27377;50.666;9.150;2023-04-03T17:14:28;5.90;96.50
41694;DHT22;27377;50.666;9.150;2023-04-03T17:16:53;5.90;97.10
41694;DHT22;27377;50.666;9.150;2023-04-03T17:19:19;5.90;97.80